createdAt,value
2022-07-29T00:01:06.019Z,1.60
2022-07-29T00:03:33.603Z,1.53
2022-07-29T00:08:41.987Z,1.40
2022-07-29T00:11:09.434Z,1.57
2022-07-29T00:13:36.745Z,1.70
2022-07-29T00:16:05.319Z,1.30
2022-07-29T00:18:33.404Z,1.77
2022-07-29T00:21:00.875Z,1.87
2022-07-29T00:23:28.301Z,1.70
2022-07-29T00:30:55.122Z,1.20
2022-07-29T00:33:24.401Z,1.63
2022-07-29T00:35:51.436Z,1.87
2022-07-29T00:38:21.176Z,1.70
2022-07-29T00:40:48.841Z,2.03
2022-07-29T00:43:16.622Z,3.00
2022-07-29T00:45:44.453Z,2.70
2022-07-29T00:53:16.362Z,2.90
2022-07-29T00:55:43.770Z,3.27
2022-07-29T00:58:13.530Z,3.30
2022-07-29T01:00:41.305Z,3.07
2022-07-29T01:03:09.352Z,3.83
2022-07-29T01:05:49.786Z,3.93
2022-07-29T01:13:55.499Z,3.80
2022-07-29T01:16:32.672Z,3.87
2022-07-29T01:19:09.952Z,3.80
2022-07-29T01:21:52.632Z,2.90
2022-07-29T01:24:46.459Z,3.20
2022-07-29T01:27:33.626Z,3.23
2022-07-29T01:30:05.244Z,3.03
2022-07-29T01:37:09.313Z,2.20
2022-07-29T01:39:39.743Z,2.53
2022-07-29T01:42:15.352Z,3.23
2022-07-29T01:44:49.681Z,2.30
2022-07-29T01:47:21.984Z,2.50
2022-07-29T01:49:51.993Z,2.80
2022-07-29T01:59:13.570Z,2.77
2022-07-29T02:01:43.658Z,2.50
2022-07-29T02:04:29.623Z,2.40
2022-07-29T02:07:02.819Z,2.10
2022-07-29T02:09:32.681Z,2.40
2022-07-29T02:12:03.132Z,2.20
2022-07-29T02:14:35.054Z,2.77
2022-07-29T02:22:08.023Z,2.57
2022-07-29T02:24:36.735Z,2.30
2022-07-29T02:27:06.276Z,2.43
2022-07-29T02:29:35.824Z,2.37
2022-07-29T02:32:04.862Z,2.70
2022-07-29T02:34:34.932Z,2.70
2022-07-29T02:37:04.013Z,2.67
2022-07-29T02:44:38.110Z,2.77
2022-07-29T02:47:12.083Z,3.40
2022-07-29T02:49:44.073Z,3.00
2022-07-29T02:52:19.538Z,2.83
2022-07-29T02:54:52.401Z,2.70
2022-07-29T02:57:22.722Z,3.57
2022-07-29T02:59:54.143Z,3.80
2022-07-29T03:06:49.772Z,3.13
2022-07-29T03:09:17.657Z,2.63
2022-07-29T03:11:50.526Z,2.90
2022-07-29T03:14:20.157Z,3.43
2022-07-29T03:16:49.068Z,2.70
2022-07-29T03:19:17.502Z,3.47
2022-07-29T03:21:44.643Z,3.00
2022-07-29T03:29:13.486Z,3.40
2022-07-29T03:31:41.543Z,3.30
2022-07-29T03:34:10.940Z,3.80
2022-07-29T03:36:37.891Z,3.50
2022-07-29T03:39:07.002Z,4.00
2022-07-29T03:41:36.841Z,2.80
2022-07-29T03:44:05.584Z,3.10
2022-07-29T03:51:34.377Z,3.63
2022-07-29T03:54:14.109Z,3.40
2022-07-29T03:56:46.734Z,3.40
2022-07-29T03:59:20.870Z,3.03
2022-07-29T04:01:49.136Z,3.70
2022-07-29T04:04:16.934Z,3.67
2022-07-29T04:06:48.366Z,4.10
2022-07-29T04:14:20.921Z,3.60
2022-07-29T04:16:48.660Z,3.63
2022-07-29T04:19:15.690Z,3.40
2022-07-29T04:21:45.501Z,3.50
2022-07-29T04:24:15.789Z,3.57
2022-07-29T04:26:43.899Z,3.23
2022-07-29T04:29:12.402Z,3.33
2022-07-29T04:36:40.162Z,3.33
2022-07-29T04:39:07.405Z,3.50
2022-07-29T04:41:34.540Z,3.10
2022-07-29T04:44:05.490Z,2.80
2022-07-29T04:46:33.154Z,3.37
2022-07-29T04:49:00.597Z,3.27
2022-07-29T04:51:28.144Z,2.93
2022-07-29T04:58:21.500Z,3.00
2022-07-29T05:00:48.979Z,2.73
2022-07-29T05:03:16.106Z,2.83
2022-07-29T05:05:43.954Z,2.87
2022-07-29T05:08:11.302Z,3.37
2022-07-29T05:10:39.069Z,3.13
2022-07-29T05:13:12.872Z,2.50
2022-07-29T05:20:41.020Z,3.27
2022-07-29T05:23:08.489Z,2.43
2022-07-29T05:25:43.702Z,2.80
2022-07-29T05:28:11.915Z,2.27
2022-07-29T05:30:39.191Z,2.87
2022-07-29T05:33:08.353Z,2.80
2022-07-29T05:36:00.744Z,2.50
2022-07-29T05:43:32.890Z,3.30
2022-07-29T05:46:00.040Z,2.67
2022-07-29T05:48:27.653Z,2.73
2022-07-29T05:50:55.728Z,2.60
2022-07-29T05:53:23.586Z,3.10
2022-07-29T05:55:52.408Z,2.37
2022-07-29T05:58:19.827Z,2.23
2022-07-29T06:05:43.594Z,2.50
2022-07-29T06:08:10.583Z,3.63
2022-07-29T06:10:38.222Z,2.73
2022-07-29T06:13:05.684Z,3.00
2022-07-29T06:15:33.656Z,2.90
2022-07-29T06:18:02.442Z,2.60
2022-07-29T06:20:30.705Z,3.27
2022-07-29T06:27:55.420Z,2.53
2022-07-29T06:30:24.216Z,3.30
2022-07-29T06:32:51.882Z,2.37
2022-07-29T06:35:38.750Z,2.70
2022-07-29T06:38:30.122Z,2.70
2022-07-29T06:41:05.581Z,2.40
2022-07-29T06:46:23.920Z,2.53
2022-07-29T06:48:53.119Z,1.97
2022-07-29T06:51:22.908Z,2.80
2022-07-29T06:53:59.979Z,2.60
2022-07-29T06:56:38.338Z,2.90
2022-07-29T06:59:08.422Z,2.30
2022-07-29T07:01:36.852Z,2.40
2022-07-29T07:09:05.152Z,2.47
2022-07-29T07:11:32.622Z,2.50
2022-07-29T07:14:03.400Z,2.10
2022-07-29T07:16:41.559Z,2.67
2022-07-29T07:19:09.215Z,2.80
2022-07-29T07:21:36.628Z,2.73
2022-07-29T07:24:06.028Z,2.83
2022-07-29T07:30:48.511Z,2.00
2022-07-29T07:33:16.290Z,2.67
2022-07-29T07:35:46.710Z,2.80
2022-07-29T07:38:14.818Z,2.40
2022-07-29T07:40:43.421Z,2.57
2022-07-29T07:43:10.802Z,2.53
2022-07-29T07:45:38.695Z,2.73
2022-07-29T07:48:10.959Z,2.60
2022-07-29T07:56:08.245Z,2.63
2022-07-29T07:58:29.752Z,2.50
2022-07-29T08:00:56.971Z,2.40
2022-07-29T08:03:24.211Z,2.33
2022-07-29T08:05:52.284Z,2.30
2022-07-29T08:08:20.060Z,2.67
2022-07-29T08:16:18.386Z,2.17
2022-07-29T08:18:47.149Z,2.43
2022-07-29T08:21:15.881Z,2.50
2022-07-29T08:24:15.888Z,2.70
2022-07-29T08:26:44.806Z,2.60
2022-07-29T08:29:12.986Z,2.50
2022-07-29T08:31:46.371Z,2.47
2022-07-29T08:39:18.945Z,2.37
2022-07-29T08:41:53.130Z,2.10
2022-07-29T08:44:30.554Z,3.03
2022-07-29T08:46:58.479Z,2.53
2022-07-29T08:49:26.514Z,2.60
2022-07-29T08:51:55.462Z,2.13
2022-07-29T08:54:25.714Z,2.20
2022-07-29T08:56:54.917Z,2.20
2022-07-29T09:04:33.307Z,2.20
2022-07-29T09:07:07.515Z,2.77
2022-07-29T09:09:36.581Z,1.67
2022-07-29T09:12:06.692Z,2.27
2022-07-29T09:14:34.423Z,2.70
2022-07-29T09:17:02.848Z,2.33
2022-07-29T09:19:35.329Z,1.80
2022-07-29T09:24:56.808Z,2.00
2022-07-29T09:27:27.059Z,1.80
2022-07-29T09:29:59.851Z,1.93
2022-07-29T09:32:29.689Z,2.37
2022-07-29T09:35:19.420Z,2.67
2022-07-29T09:37:47.743Z,2.60
2022-07-29T09:40:20.331Z,2.10
2022-07-29T09:47:54.613Z,2.77
2022-07-29T09:50:24.726Z,2.37
2022-07-29T09:52:54.222Z,2.57
2022-07-29T09:55:22.012Z,2.40
2022-07-29T09:57:51.480Z,2.50
2022-07-29T10:00:24.025Z,2.70
2022-07-29T10:03:01.578Z,2.03
2022-07-29T10:10:40.609Z,2.33
2022-07-29T10:13:15.058Z,2.50
2022-07-29T10:15:45.788Z,2.43
2022-07-29T10:18:17.724Z,2.20
2022-07-29T10:20:45.771Z,1.80
2022-07-29T10:23:13.572Z,1.80
2022-07-29T10:25:46.326Z,2.50
2022-07-29T10:31:16.615Z,2.30
2022-07-29T10:33:54.162Z,2.40
2022-07-29T10:36:34.494Z,2.60
2022-07-29T10:39:10.082Z,1.97
2022-07-29T10:42:04.972Z,2.20
2022-07-29T10:44:34.769Z,2.00
2022-07-29T10:47:03.705Z,2.20
2022-07-29T10:54:55.223Z,2.30
2022-07-29T10:57:53.839Z,2.40
2022-07-29T11:00:32.882Z,2.50
2022-07-29T11:03:01.457Z,1.87
2022-07-29T11:05:53.194Z,2.00
2022-07-29T11:08:27.840Z,2.13
2022-07-29T11:15:59.890Z,2.13
2022-07-29T11:18:27.152Z,2.53
2022-07-29T11:20:54.690Z,1.80
2022-07-29T11:23:27.933Z,2.60
2022-07-29T11:26:23.011Z,2.07
2022-07-29T11:28:55.531Z,2.07
2022-07-29T11:34:51.109Z,2.40
2022-07-29T11:37:27.884Z,2.00
2022-07-29T11:40:20.010Z,1.50
2022-07-29T11:42:48.577Z,1.93
2022-07-29T11:45:43.319Z,1.80
2022-07-29T11:48:28.821Z,1.90
2022-07-29T11:53:37.921Z,2.20
2022-07-29T11:56:09.509Z,2.03
2022-07-29T11:58:38.284Z,2.37
2022-07-29T12:01:07.120Z,2.37
2022-07-29T12:03:36.796Z,1.80
2022-07-29T12:06:13.199Z,2.30
2022-07-29T12:08:43.836Z,2.27
2022-07-29T12:11:20.789Z,2.57
2022-07-29T12:19:03.200Z,2.23
2022-07-29T12:21:49.429Z,1.80
2022-07-29T12:24:26.686Z,1.97
2022-07-29T12:26:57.602Z,1.73
2022-07-29T12:29:33.933Z,1.90
2022-07-29T12:32:06.983Z,2.23
2022-07-29T12:34:43.741Z,2.37
2022-07-29T12:42:18.716Z,1.90
2022-07-29T12:44:47.624Z,2.17
2022-07-29T12:47:14.919Z,2.00
2022-07-29T12:49:43.153Z,1.63
2022-07-29T12:52:28.187Z,2.20
2022-07-29T12:54:55.722Z,2.20
2022-07-29T12:57:24.431Z,2.23
2022-07-29T13:05:58.930Z,1.67
2022-07-29T13:08:26.112Z,1.93
2022-07-29T13:10:54.170Z,1.53
2022-07-29T13:13:22.227Z,1.80
2022-07-29T13:16:07.980Z,1.87
2022-07-29T13:18:36.712Z,2.17
2022-07-29T13:21:14.760Z,1.50
2022-07-29T13:28:47.742Z,1.50
2022-07-29T13:31:19.038Z,1.70
2022-07-29T13:33:46.705Z,1.53
2022-07-29T13:36:14.294Z,1.57
2022-07-29T13:38:42.431Z,1.97
2022-07-29T13:41:10.852Z,1.93
2022-07-29T13:43:44.706Z,1.83
2022-07-29T13:54:01.803Z,1.73
2022-07-29T13:56:30.182Z,1.80
2022-07-29T13:58:58.010Z,1.23
2022-07-29T14:01:26.384Z,1.80
2022-07-29T14:03:53.922Z,1.77
2022-07-29T14:06:22.277Z,1.73
2022-07-29T14:08:49.910Z,1.90
2022-07-29T14:19:22.082Z,1.47
2022-07-29T14:21:49.942Z,1.63
2022-07-29T14:24:22.919Z,1.40
2022-07-29T14:26:51.792Z,1.70
2022-07-29T14:29:19.823Z,1.63
2022-07-29T14:31:48.369Z,1.70
2022-07-29T14:34:18.523Z,1.97
2022-07-29T14:44:20.242Z,2.73
2022-07-29T14:46:48.120Z,2.87
2022-07-29T14:49:17.386Z,3.30
2022-07-29T14:51:44.571Z,3.33
2022-07-29T14:54:11.993Z,3.70
2022-07-29T14:56:46.746Z,4.40
2022-07-29T14:59:14.884Z,3.43
2022-07-29T15:04:24.666Z,3.00
2022-07-29T15:06:52.434Z,3.17
2022-07-29T15:09:20.460Z,3.03
2022-07-29T15:11:48.982Z,2.90
2022-07-29T15:14:16.470Z,3.00
2022-07-29T15:16:46.723Z,3.73
2022-07-29T15:19:18.392Z,3.07
2022-07-29T15:21:48.513Z,3.33
2022-07-29T15:29:23.441Z,3.67
2022-07-29T15:31:50.912Z,3.87
2022-07-29T15:34:18.404Z,3.87
2022-07-29T15:36:52.441Z,3.67
2022-07-29T15:39:22.634Z,3.87
2022-07-29T15:41:50.664Z,4.20
2022-07-29T15:44:18.531Z,3.73
2022-07-29T15:54:55.802Z,4.30
2022-07-29T15:57:23.890Z,4.90
2022-07-29T15:59:51.411Z,4.60
2022-07-29T16:02:19.007Z,4.53
2022-07-29T16:04:46.704Z,4.80
2022-07-29T16:07:14.712Z,5.03
2022-07-29T16:09:42.473Z,4.33
2022-07-29T16:18:00.613Z,4.20
2022-07-29T16:20:28.529Z,4.30
2022-07-29T16:22:57.001Z,4.17
2022-07-29T16:25:43.942Z,4.33
2022-07-29T16:28:12.715Z,4.63
2022-07-29T16:30:40.051Z,4.47
2022-07-29T16:33:08.632Z,4.57
2022-07-29T16:43:36.774Z,3.27
2022-07-29T16:46:04.419Z,3.90
2022-07-29T16:48:32.490Z,3.50
2022-07-29T16:50:59.944Z,3.40
2022-07-29T16:53:30.194Z,3.73
2022-07-29T16:55:57.843Z,3.93
2022-07-29T16:58:25.765Z,3.50
2022-07-29T17:04:08.292Z,4.10
2022-07-29T17:06:37.093Z,2.90
2022-07-29T17:09:05.935Z,4.03
2022-07-29T17:11:53.222Z,2.90
2022-07-29T17:14:24.165Z,3.10
2022-07-29T17:17:01.155Z,3.20
2022-07-29T17:19:31.683Z,3.50
2022-07-29T17:27:04.784Z,3.73
2022-07-29T17:29:34.364Z,3.67
2022-07-29T17:32:02.243Z,4.10
2022-07-29T17:34:30.153Z,4.13
2022-07-29T17:36:58.046Z,3.97
2022-07-29T17:39:26.245Z,4.43
2022-07-29T17:41:53.464Z,3.93
2022-07-29T17:52:20.625Z,4.27
2022-07-29T17:54:48.723Z,3.40
2022-07-29T17:57:16.072Z,4.17
2022-07-29T17:59:44.812Z,3.63
2022-07-29T18:02:14.187Z,3.60
2022-07-29T18:04:42.404Z,3.43
2022-07-29T18:07:12.142Z,4.13
2022-07-29T18:17:52.832Z,4.93
2022-07-29T18:20:16.171Z,3.70
2022-07-29T18:22:43.482Z,4.73
2022-07-29T18:25:11.405Z,4.00
2022-07-29T18:27:40.395Z,3.97
2022-07-29T18:30:10.275Z,5.27
2022-07-29T18:32:40.740Z,4.30
2022-07-29T18:38:01.785Z,4.60
2022-07-29T18:40:31.587Z,4.40
2022-07-29T18:42:59.493Z,4.40
2022-07-29T18:45:28.677Z,4.40
2022-07-29T18:47:56.845Z,4.30
2022-07-29T18:50:29.283Z,4.87
2022-07-29T18:53:03.782Z,4.73
2022-07-29T19:00:37.935Z,3.67
2022-07-29T19:03:06.061Z,3.80
2022-07-29T19:05:36.382Z,3.47
2022-07-29T19:08:04.005Z,3.67
2022-07-29T19:10:31.494Z,3.20
2022-07-29T19:12:59.525Z,3.37
2022-07-29T19:15:29.764Z,4.20
2022-07-29T19:23:05.342Z,3.10
2022-07-29T19:25:35.666Z,3.27
2022-07-29T19:28:03.703Z,3.10
2022-07-29T19:30:31.250Z,3.30
2022-07-29T19:32:58.952Z,2.77
2022-07-29T19:35:41.006Z,2.83
2022-07-29T19:38:11.490Z,3.00
2022-07-29T19:48:40.381Z,3.20
2022-07-29T19:51:19.617Z,3.27
2022-07-29T19:53:47.154Z,2.83
2022-07-29T19:56:16.153Z,3.30
2022-07-29T19:58:44.723Z,2.43
2022-07-29T20:01:13.287Z,2.60
2022-07-29T20:03:41.783Z,2.67
2022-07-29T20:11:44.842Z,3.27
2022-07-29T20:14:13.651Z,2.47
2022-07-29T20:16:42.845Z,2.07
2022-07-29T20:19:10.247Z,2.43
2022-07-29T20:21:37.927Z,2.27
2022-07-29T20:24:06.041Z,2.33
2022-07-29T20:26:34.824Z,2.50
2022-07-29T20:32:28.333Z,2.30
2022-07-29T20:34:56.482Z,2.43
2022-07-29T20:37:24.101Z,2.50
2022-07-29T20:39:52.834Z,2.27
2022-07-29T20:42:22.041Z,2.33
2022-07-29T20:44:53.427Z,2.60
2022-07-29T20:47:22.781Z,2.40
2022-07-29T20:53:03.143Z,2.33
2022-07-29T20:55:31.452Z,2.57
2022-07-29T20:57:58.616Z,2.27
2022-07-29T21:00:26.445Z,2.57
2022-07-29T21:02:53.951Z,2.23
2022-07-29T21:05:21.446Z,2.67
2022-07-29T21:07:50.143Z,2.13
2022-07-29T21:13:01.408Z,2.73
2022-07-29T21:15:30.145Z,2.37
2022-07-29T21:18:01.920Z,2.37
2022-07-29T21:20:31.677Z,2.80
2022-07-29T21:23:00.385Z,2.40
2022-07-29T21:25:28.933Z,2.47
2022-07-29T21:28:14.344Z,2.73
2022-07-29T21:38:59.338Z,2.37
2022-07-29T21:41:26.992Z,2.53
2022-07-29T21:43:54.532Z,2.40
2022-07-29T21:46:26.423Z,2.40
2022-07-29T21:48:53.837Z,2.73
2022-07-29T21:51:21.352Z,2.60
2022-07-29T21:53:49.965Z,2.97
2022-07-29T22:01:23.432Z,2.50
2022-07-29T22:03:52.956Z,3.10
2022-07-29T22:06:21.216Z,2.63
2022-07-29T22:08:49.310Z,2.83
2022-07-29T22:11:16.434Z,2.80
2022-07-29T22:13:44.244Z,3.00
2022-07-29T22:16:14.824Z,3.20
2022-07-29T22:21:37.524Z,2.97
2022-07-29T22:24:05.624Z,3.20
2022-07-29T22:26:33.492Z,3.20
2022-07-29T22:29:01.174Z,3.10
2022-07-29T22:31:28.974Z,3.47
2022-07-29T22:33:55.959Z,3.07
2022-07-29T22:36:24.552Z,3.30
2022-07-29T22:38:54.404Z,3.20
2022-07-29T22:44:18.235Z,3.27
2022-07-29T22:46:46.057Z,3.10
2022-07-29T22:49:14.598Z,3.50
2022-07-29T22:51:42.172Z,3.10
2022-07-29T22:54:09.854Z,3.30
2022-07-29T22:56:37.162Z,3.27
2022-07-29T22:59:04.514Z,3.73
2022-07-29T23:09:20.365Z,3.50
2022-07-29T23:11:47.704Z,3.83
2022-07-29T23:14:15.291Z,4.17
2022-07-29T23:16:43.114Z,3.10
2022-07-29T23:19:10.452Z,3.40
2022-07-29T23:21:37.973Z,3.90
2022-07-29T23:24:05.371Z,3.67
2022-07-29T23:26:34.035Z,3.80
2022-07-29T23:34:06.705Z,3.90
2022-07-29T23:36:34.975Z,3.70
2022-07-29T23:39:02.634Z,4.27
2022-07-29T23:41:30.604Z,4.00
2022-07-29T23:43:58.536Z,4.30
2022-07-29T23:46:31.631Z,4.40
2022-07-29T23:48:59.620Z,3.77
2022-07-29T23:56:27.160Z,4.93
2022-07-29T23:58:56.844Z,4.57
